Time;durP1;ratioP1;P1;durP2;ratioP2;P2;SDS_P1;SDS_P2;PMS_P1;PMS_P2;Temp;Humidity;BMP_temperature;BMP_pressure;BME280_temperature;BME280_humidity;BME280_pressure;Samples;Min_cycle;Max_cycle;Signal;HPM_P1;HPM_P2
2023/04/12 00:00:57;;;;;;;3.43;2.80;;;13.00;54.00;;;;;;5065661;28;20507;-84
2023/04/12 00:03:24;;;;;;;5.57;2.60;;;13.00;53.90;;;;;;5090147;28;20454;-85
2023/04/12 00:05:53;;;;;;;2.77;2.57;;;13.00;54.00;;;;;;5086633;28;20471;-86
2023/04/12 00:08:23;;;;;;;9.63;3.30;;;13.00;53.70;;;;;;5091318;28;20450;-84
2023/04/12 00:10:51;;;;;;;8.13;3.73;;;13.00;53.50;;;;;;5088003;28;21331;-86
2023/04/12 00:13:20;;;;;;;3.87;3.10;;;13.10;53.10;;;;;;5089927;28;20464;-86
2023/04/12 00:15:47;;;;;;;4.50;2.83;;;13.00;53.30;;;;;;5086476;28;20543;-86
2023/04/12 00:18:14;;;;;;;3.20;2.90;;;13.00;53.20;;;;;;5090642;28;20438;-86
2023/04/12 00:20:43;;;;;;;5.67;3.40;;;13.00;53.00;;;;;;5087296;28;20467;-86
2023/04/12 00:23:11;;;;;;;5.30;2.30;;;13.00;52.60;;;;;;5072495;28;20497;-85
2023/04/12 00:25:39;;;;;;;9.73;3.53;;;12.80;52.40;;;;;;5064278;28;20446;-87
2023/04/12 00:28:06;;;;;;;4.47;2.70;;;12.30;53.80;;;;;;5091606;28;20478;-85
2023/04/12 00:30:35;;;;;;;4.60;3.03;;;12.40;53.90;;;;;;5074056;28;20528;-85
2023/04/12 00:33:01;;;;;;;3.80;2.93;;;12.60;54.20;;;;;;5091247;27;20447;-85
2023/04/12 00:35:29;;;;;;;4.00;3.07;;;12.70;53.80;;;;;;5057336;28;20455;-84
2023/04/12 00:37:56;;;;;;;5.90;3.10;;;12.80;53.70;;;;;;5091582;28;20447;-85
2023/04/12 00:40:23;;;;;;;5.97;3.40;;;12.80;53.80;;;;;;5090822;28;20563;-86
2023/04/12 00:42:50;;;;;;;4.53;3.23;;;12.90;53.80;;;;;;5089372;27;20823;-85
2023/04/12 00:45:17;;;;;;;5.77;3.37;;;12.90;53.80;;;;;;5090056;28;20439;-85
2023/04/12 00:47:45;;;;;;;4.23;2.87;;;12.90;53.80;;;;;;5053163;28;20533;-85
2023/04/12 00:50:12;;;;;;;6.33;3.07;;;12.90;54.50;;;;;;5074722;28;20553;-85
2023/04/12 00:52:40;;;;;;;5.80;4.00;;;12.80;54.40;;;;;;5069827;28;20452;-86
2023/04/12 00:55:09;;;;;;;7.17;4.20;;;12.80;54.10;;;;;;5091688;27;20538;-86
2023/04/12 00:57:38;;;;;;;7.87;4.20;;;12.80;54.30;;;;;;5090217;28;20440;-85
2023/04/12 01:00:07;;;;;;;8.60;4.57;;;12.80;54.60;;;;;;5089914;28;20501;-84
2023/04/12 01:02:37;;;;;;;10.13;4.27;;;12.80;54.70;;;;;;5096657;28;20556;-85
2023/04/12 01:05:13;;;;;;;5.33;3.53;;;12.90;54.40;;;;;;5090628;28;20446;-86
2023/04/12 01:07:50;;;;;;;5.43;2.93;;;12.90;54.30;;;;;;5091212;27;20470;-84
2023/04/12 01:10:32;;;;;;;6.73;3.50;;;13.00;54.60;;;;;;5091331;28;20447;-85
2023/04/12 01:13:11;;;;;;;4.27;3.13;;;12.90;54.60;;;;;;5089456;28;20924;-85
2023/04/12 01:15:46;;;;;;;10.93;3.90;;;13.00;54.70;;;;;;5070092;28;20444;-85
2023/04/12 01:18:19;;;;;;;4.63;3.47;;;12.90;54.60;;;;;;5075035;28;20481;-85
2023/04/12 01:20:56;;;;;;;5.37;3.30;;;13.00;54.60;;;;;;5068426;28;20466;-85
2023/04/12 01:23:43;;;;;;;4.50;3.40;;;13.00;54.70;;;;;;5108016;27;20458;-86
2023/04/12 01:26:20;;;;;;;5.50;3.47;;;12.90;54.60;;;;;;5091143;28;20554;-86
2023/04/12 01:28:53;;;;;;;4.03;2.90;;;12.90;54.60;;;;;;5089451;27;22010;-84
2023/04/12 01:31:21;;;;;;;3.50;3.20;;;12.90;55.00;;;;;;5085250;28;20472;-85
2023/04/12 01:33:54;;;;;;;7.67;3.23;;;12.80;54.70;;;;;;5097779;27;20960;-85
2023/04/12 01:36:23;;;;;;;8.30;3.77;;;12.60;55.40;;;;;;5069552;28;20451;-86
2023/04/12 01:38:51;;;;;;;4.63;3.50;;;12.50;55.70;;;;;;5076460;27;20454;-85
2023/04/12 01:41:19;;;;;;;5.80;3.60;;;12.50;55.60;;;;;;5072388;28;20481;-86
2023/04/12 01:43:48;;;;;;;4.27;3.27;;;12.50;55.90;;;;;;5093522;27;20468;-85
2023/04/12 01:46:18;;;;;;;8.80;3.33;;;12.60;55.50;;;;;;5088486;28;20447;-84
2023/04/12 01:48:49;;;;;;;3.97;3.07;;;12.60;55.50;;;;;;5074405;28;20503;-86
2023/04/12 01:51:24;;;;;;;7.53;3.63;;;12.60;55.60;;;;;;5080048;28;20528;-87
2023/04/12 01:53:57;;;;;;;6.00;3.50;;;12.70;56.10;;;;;;5111508;27;20974;-86
2023/04/12 01:56:30;;;;;;;6.30;3.57;;;12.60;55.20;;;;;;5114114;27;20525;-85
2023/04/12 01:59:00;;;;;;;4.53;3.60;;;12.50;55.60;;;;;;5096346;27;20478;-84
2023/04/12 02:01:29;;;;;;;4.30;3.23;;;12.60;55.80;;;;;;5096018;27;20458;-86
2023/04/12 02:03:59;;;;;;;6.80;3.53;;;12.60;56.60;;;;;;5085239;27;20452;-84
2023/04/12 02:06:27;;;;;;;5.83;2.90;;;12.60;56.00;;;;;;5087368;28;20442;-86
2023/04/12 02:08:58;;;;;;;5.63;3.70;;;12.70;56.50;;;;;;5095324;27;20438;-85
2023/04/12 02:11:25;;;;;;;5.07;3.90;;;12.80;56.00;;;;;;5094493;27;20554;-86
2023/04/12 02:13:52;;;;;;;3.27;2.97;;;12.90;56.00;;;;;;5109646;27;20547;-84
2023/04/12 02:16:22;;;;;;;6.80;3.53;;;12.90;56.00;;;;;;5079638;28;20533;-87
2023/04/12 02:18:50;;;;;;;4.50;3.23;;;13.00;55.90;;;;;;5079409;27;20500;-85
2023/04/12 02:21:17;;;;;;;5.77;3.20;;;13.00;55.90;;;;;;5093608;27;20473;-86
2023/04/12 02:23:44;;;;;;;4.90;3.07;;;12.90;55.90;;;;;;5053282;28;21200;-87
2023/04/12 02:26:12;;;;;;;6.43;3.63;;;12.90;56.00;;;;;;5070345;28;20481;-85
2023/04/12 02:28:39;;;;;;;3.53;3.23;;;12.80;55.80;;;;;;5095925;27;21185;-85
2023/04/12 02:31:08;;;;;;;6.17;3.33;;;12.80;56.00;;;;;;5081972;28;20459;-84
2023/04/12 02:33:39;;;;;;;3.77;3.30;;;12.80;56.40;;;;;;5077695;28;20451;-85
2023/04/12 02:36:10;;;;;;;5.07;3.50;;;12.90;56.80;;;;;;5078002;28;20959;-87
2023/04/12 02:38:37;;;;;;;5.80;3.93;;;12.90;56.70;;;;;;5077037;28;20468;-86
2023/04/12 02:41:07;;;;;;;4.17;3.37;;;12.90;56.70;;;;;;5064445;28;20462;-88
2023/04/12 02:43:35;;;;;;;4.70;3.93;;;13.00;56.50;;;;;;5082795;28;20448;-86
2023/04/12 02:46:07;;;;;;;5.90;3.70;;;13.00;56.40;;;;;;5084748;28;20458;-85
2023/04/12 02:48:43;;;;;;;4.37;3.40;;;13.00;56.40;;;;;;5065083;28;20466;-86
2023/04/12 02:51:11;;;;;;;5.33;3.17;;;13.00;56.40;;;;;;5078736;28;20475;-85
2023/04/12 02:53:40;;;;;;;5.50;3.03;;;13.00;56.20;;;;;;5078446;28;20466;-87
2023/04/12 02:56:17;;;;;;;6.50;3.67;;;13.00;56.40;;;;;;5083072;28;20462;-86
2023/04/12 02:58:45;;;;;;;7.40;3.67;;;13.00;56.20;;;;;;5080924;28;20442;-86
2023/04/12 03:01:18;;;;;;;5.10;3.30;;;12.80;56.30;;;;;;5060141;28;20998;-86
2023/04/12 03:04:06;;;;;;;2.70;2.50;;;12.80;57.10;;;;;;5066559;28;20431;-87
2023/04/12 03:06:51;;;;;;;4.60;3.30;;;12.70;57.60;;;;;;5106898;27;20452;-85
2023/04/12 03:09:21;;;;;;;4.70;3.53;;;12.80;57.90;;;;;;5101633;27;20464;-85
2023/04/12 03:11:48;;;;;;;6.00;3.40;;;12.70;58.70;;;;;;5038301;28;20553;-86
2023/04/12 03:14:16;;;;;;;4.80;3.47;;;12.60;58.30;;;;;;5080010;28;20459;-86
2023/04/12 03:16:43;;;;;;;4.30;2.73;;;12.70;58.00;;;;;;5065664;28;20442;-86
2023/04/12 03:19:16;;;;;;;5.93;4.20;;;12.60;57.50;;;;;;5108006;27;20436;-86
2023/04/12 03:21:49;;;;;;;8.80;4.57;;;12.70;56.20;;;;;;5062561;28;20875;-87
2023/04/12 03:24:17;;;;;;;6.27;4.50;;;12.80;57.10;;;;;;5092706;28;21044;-86
2023/04/12 03:26:44;;;;;;;4.80;3.60;;;12.70;57.90;;;;;;5090771;28;20508;-84
2023/04/12 03:29:16;;;;;;;4.33;2.87;;;12.80;58.30;;;;;;5075117;28;20550;-86
2023/04/12 03:31:44;;;;;;;4.40;3.23;;;12.90;58.00;;;;;;5088659;27;20469;-86
2023/04/12 03:34:11;;;;;;;6.47;3.57;;;13.00;57.80;;;;;;5090003;28;20535;-86
2023/04/12 03:36:45;;;;;;;6.00;4.70;;;13.10;57.40;;;;;;5081650;28;20948;-86
2023/04/12 03:39:23;;;;;;;8.07;4.40;;;12.90;56.70;;;;;;5071069;28;20455;-85
2023/04/12 03:41:52;;;;;;;6.47;3.40;;;12.90;57.00;;;;;;5099443;27;20499;-86
2023/04/12 03:44:24;;;;;;;5.30;3.73;;;13.00;57.10;;;;;;5082515;28;20475;-87
2023/04/12 03:47:12;;;;;;;5.77;3.87;;;13.00;56.90;;;;;;5089388;28;20881;-86
2023/04/12 03:49:39;;;;;;;4.67;3.37;;;12.70;57.30;;;;;;5077171;28;20452;-85
2023/04/12 03:52:12;;;;;;;6.80;4.73;;;12.80;57.30;;;;;;5072572;28;20493;-87
2023/04/12 03:54:41;;;;;;;7.60;4.87;;;12.90;57.90;;;;;;5086576;27;20451;-87
2023/04/12 03:57:12;;;;;;;4.33;2.60;;;13.00;57.60;;;;;;5106501;27;20818;-85
2023/04/12 03:59:45;;;;;;;4.40;3.00;;;12.80;56.70;;;;;;5082105;28;20455;-85
2023/04/12 04:02:13;;;;;;;5.47;3.07;;;12.80;57.40;;;;;;5063697;28;20537;-86
2023/04/12 04:04:45;;;;;;;5.70;2.13;;;12.90;58.30;;;;;;5070043;28;20513;-87
2023/04/12 04:07:18;;;;;;;3.83;2.50;;;13.00;57.70;;;;;;5080870;28;20443;-87
2023/04/12 04:09:46;;;;;;;4.10;2.50;;;12.90;57.50;;;;;;5063070;28;21413;-85
2023/04/12 04:12:14;;;;;;;3.83;2.17;;;12.70;57.80;;;;;;5089000;27;21067;-85
2023/04/12 04:14:45;;;;;;;5.43;2.47;;;12.80;58.30;;;;;;5092565;27;20454;-87
2023/04/12 04:17:19;;;;;;;3.80;2.40;;;13.00;58.50;;;;;;5048526;28;20458;-86
2023/04/12 04:19:46;;;;;;;5.30;2.60;;;13.00;57.90;;;;;;5107712;27;20815;-86
2023/04/12 04:22:13;;;;;;;4.73;2.50;;;13.00;57.90;;;;;;5090819;28;20865;-87
2023/04/12 04:24:42;;;;;;;3.13;2.40;;;12.80;57.90;;;;;;5047679;28;20452;-87
2023/04/12 04:27:09;;;;;;;6.50;2.90;;;12.80;57.90;;;;;;5091462;27;20443;-87
2023/04/12 04:29:43;;;;;;;6.43;4.50;;;12.70;58.00;;;;;;5065159;28;20467;-85
2023/04/12 04:32:10;;;;;;;4.93;3.27;;;12.70;58.00;;;;;;5089345;28;21009;-87
2023/04/12 04:34:39;;;;;;;5.27;2.63;;;12.60;58.20;;;;;;5075342;28;20451;-86
2023/04/12 04:37:18;;;;;;;4.53;3.10;;;12.70;58.50;;;;;;5042949;28;20493;-86
2023/04/12 04:39:48;;;;;;;6.10;3.37;;;12.90;58.60;;;;;;5091813;27;20458;-85
2023/04/12 04:42:15;;;;;;;3.40;2.40;;;13.10;58.90;;;;;;5071631;28;20527;-87
2023/04/12 04:45:03;;;;;;;6.70;2.67;;;13.10;58.60;;;;;;5058419;28;20547;-86
2023/04/12 04:47:35;;;;;;;4.40;3.03;;;12.60;58.30;;;;;;5049365;28;20453;-85
2023/04/12 04:50:02;;;;;;;3.23;2.93;;;12.30;59.20;;;;;;5061965;28;20431;-87
2023/04/12 04:52:29;;;;;;;4.90;2.80;;;12.20;60.20;;;;;;5047481;28;20525;-86
2023/04/12 04:55:04;;;;;;;9.23;3.40;;;12.20;60.80;;;;;;5081312;28;20443;-86
2023/04/12 04:57:35;;;;;;;4.70;3.13;;;12.40;60.50;;;;;;5073918;28;20534;-85
2023/04/12 05:00:09;;;;;;;4.93;2.43;;;12.40;60.10;;;;;;5050576;28;20447;-88
2023/04/12 05:02:38;;;;;;;4.53;2.60;;;12.10;60.20;;;;;;5061508;28;20520;-85
2023/04/12 05:05:07;;;;;;;5.20;2.30;;;11.90;62.60;;;;;;5075585;27;20444;-86
2023/04/12 05:07:35;;;;;;;4.00;3.23;;;12.00;62.30;;;;;;5093179;27;20433;-86
2023/04/12 05:10:04;;;;;;;4.17;2.50;;;12.10;61.40;;;;;;5057683;28;20470;-87
2023/04/12 05:12:34;;;;;;;5.63;2.53;;;12.10;61.70;;;;;;5059129;28;20520;-88
2023/04/12 05:15:02;;;;;;;6.70;3.50;;;12.30;61.70;;;;;;5089771;28;20439;-87
2023/04/12 05:17:29;;;;;;;4.90;2.50;;;12.20;61.30;;;;;;5066228;28;20455;-87
2023/04/12 05:19:56;;;;;;;5.23;2.77;;;12.00;61.80;;;;;;5069065;28;20558;-88
2023/04/12 05:22:23;;;;;;;5.50;3.50;;;12.20;62.40;;;;;;5063912;28;20456;-87
2023/04/12 05:24:51;;;;;;;4.83;3.20;;;12.10;61.70;;;;;;5086252;28;20448;-85
2023/04/12 05:27:20;;;;;;;5.47;2.43;;;12.30;62.20;;;;;;5076041;28;20508;-87
2023/04/12 05:29:48;;;;;;;5.70;2.60;;;12.20;61.30;;;;;;5081610;28;20563;-88
2023/04/12 05:32:18;;;;;;;4.53;3.00;;;12.20;61.70;;;;;;5092916;28;20537;-85
2023/04/12 05:34:47;;;;;;;7.90;3.30;;;12.30;62.30;;;;;;5089818;28;20443;-85
2023/04/12 05:37:14;;;;;;;3.43;3.13;;;12.10;62.30;;;;;;5074321;28;20450;-85
2023/04/12 05:39:42;;;;;;;7.10;3.17;;;12.30;62.60;;;;;;5082302;28;20454;-85
2023/04/12 05:42:10;;;;;;;5.60;2.53;;;12.30;62.70;;;;;;5072539;28;21551;-85
2023/04/12 05:44:40;;;;;;;3.80;3.10;;;12.40;62.20;;;;;;5075356;28;20461;-85
2023/04/12 05:47:11;;;;;;;4.43;2.53;;;12.20;62.00;;;;;;5059384;28;20466;-88
2023/04/12 05:49:38;;;;;;;5.47;2.70;;;12.30;63.00;;;;;;5061606;28;20475;-87
2023/04/12 05:52:08;;;;;;;4.20;2.83;;;12.10;62.30;;;;;;5077853;28;20517;-86
2023/04/12 05:54:35;;;;;;;7.00;2.97;;;12.10;62.80;;;;;;5059917;28;20461;-85
2023/04/12 05:57:03;;;;;;;4.17;2.33;;;12.00;63.70;;;;;;5058736;28;20482;-85
2023/04/12 05:59:31;;;;;;;8.43;3.00;;;12.20;63.10;;;;;;5092841;28;20450;-86
2023/04/12 06:02:00;;;;;;;6.60;2.50;;;12.20;62.90;;;;;;5074345;28;20498;-86
2023/04/12 06:04:28;;;;;;;4.33;2.57;;;12.20;62.80;;;;;;5048024;28;20451;-86
2023/04/12 06:06:55;;;;;;;3.93;2.30;;;12.10;63.40;;;;;;5076083;28;20467;-84
2023/04/12 06:09:22;;;;;;;6.27;2.17;;;12.10;63.00;;;;;;5064069;28;20470;-85
2023/04/12 06:11:51;;;;;;;4.23;2.57;;;11.90;63.40;;;;;;5079931;28;20487;-85
2023/04/12 06:14:18;;;;;;;3.20;2.67;;;12.00;63.30;;;;;;5076179;28;20461;-85
2023/04/12 06:16:46;;;;;;;4.10;2.87;;;12.00;63.20;;;;;;5092497;28;20534;-85
2023/04/12 06:19:15;;;;;;;4.97;2.47;;;11.90;64.50;;;;;;5092665;27;20447;-86
2023/04/12 06:21:42;;;;;;;6.57;2.40;;;11.90;64.20;;;;;;5108825;27;21096;-86
2023/04/12 06:24:09;;;;;;;5.37;2.80;;;12.00;64.40;;;;;;5057917;27;20961;-85
2023/04/12 06:26:37;;;;;;;7.03;2.40;;;12.10;64.10;;;;;;5090262;28;20447;-85
2023/04/12 06:29:05;;;;;;;3.10;2.20;;;12.10;63.40;;;;;;5094908;27;20482;-86
2023/04/12 06:31:33;;;;;;;2.97;2.50;;;12.10;63.80;;;;;;5078650;28;20841;-86
2023/04/12 06:34:01;;;;;;;8.60;2.17;;;12.30;63.30;;;;;;5083636;28;20565;-85
2023/04/12 06:36:30;;;;;;;4.00;2.43;;;12.40;63.20;;;;;;5093622;27;20963;-86
2023/04/12 06:38:57;;;;;;;2.93;2.10;;;12.40;62.60;;;;;;5108883;27;20464;-84
2023/04/12 06:41:25;;;;;;;1.70;1.60;;;12.20;63.10;;;;;;5077165;28;20478;-86
2023/04/12 06:44:00;;;;;;;4.53;2.33;;;12.20;63.50;;;;;;5066311;27;20468;-85
2023/04/12 06:46:27;;;;;;;6.87;3.63;;;12.20;64.10;;;;;;5093293;28;20501;-87
2023/04/12 06:48:54;;;;;;;4.90;2.67;;;12.40;63.80;;;;;;5087903;28;20489;-87
2023/04/12 06:51:21;;;;;;;3.50;2.50;;;12.20;63.80;;;;;;5098958;27;20813;-85
2023/04/12 06:53:50;;;;;;;6.07;2.53;;;12.20;63.80;;;;;;5071192;28;20451;-85
2023/04/12 06:56:17;;;;;;;3.17;2.93;;;11.90;64.10;;;;;;5079015;27;22123;-86
2023/04/12 06:58:44;;;;;;;3.00;2.00;;;12.10;65.00;;;;;;5100242;27;20769;-85
2023/04/12 07:01:13;;;;;;;2.13;1.63;;;12.20;64.20;;;;;;5079652;28;20467;-85
2023/04/12 07:03:40;;;;;;;2.17;2.07;;;12.10;64.10;;;;;;5077088;28;20453;-84
2023/04/12 07:06:07;;;;;;;2.80;1.93;;;12.00;64.90;;;;;;5056783;28;21013;-84
2023/04/12 07:08:36;;;;;;;2.63;2.17;;;12.00;64.90;;;;;;5050997;28;20463;-85
2023/04/12 07:11:05;;;;;;;2.80;1.60;;;12.00;64.60;;;;;;5105087;27;20506;-85
2023/04/12 07:13:32;;;;;;;3.90;3.10;;;12.10;64.80;;;;;;5091578;28;20470;-85
2023/04/12 07:15:59;;;;;;;3.40;2.63;;;12.00;65.20;;;;;;5087296;27;20443;-84
2023/04/12 07:18:27;;;;;;;3.23;1.83;;;11.70;65.50;;;;;;5094278;27;20530;-85
2023/04/12 07:20:56;;;;;;;3.60;2.60;;;11.70;67.00;;;;;;5090984;28;20474;-85
2023/04/12 07:23:24;;;;;;;2.70;1.90;;;11.50;67.20;;;;;;5096882;27;20799;-84
2023/04/12 07:25:51;;;;;;;1.87;1.77;;;11.70;67.90;;;;;;5090727;27;21325;-83
2023/04/12 07:28:20;;;;;;;4.27;1.90;;;12.10;66.90;;;;;;5071894;27;20525;-86
2023/04/12 07:30:47;;;;;;;4.00;1.93;;;12.30;65.90;;;;;;5091069;27;20471;-85
2023/04/12 07:33:14;;;;;;;2.53;2.10;;;12.30;65.30;;;;;;5090018;28;20458;-85
2023/04/12 07:35:41;;;;;;;6.80;4.23;;;12.50;65.80;;;;;;5065232;28;21030;-83
2023/04/12 07:38:08;;;;;;;2.53;2.33;;;12.70;64.80;;;;;;5077807;27;20490;-83
2023/04/12 07:40:35;;;;;;;3.20;2.20;;;12.50;65.20;;;;;;5093062;28;20573;-85
2023/04/12 07:43:02;;;;;;;10.40;2.70;;;12.60;65.00;;;;;;5092523;27;21064;-85
2023/04/12 07:45:30;;;;;;;3.37;2.50;;;12.60;64.90;;;;;;5092029;27;20444;-86
2023/04/12 07:47:57;;;;;;;3.87;2.60;;;12.60;65.40;;;;;;5072531;28;20902;-84
2023/04/12 07:50:24;;;;;;;3.07;2.67;;;12.90;64.80;;;;;;5094007;28;20476;-84
2023/04/12 07:52:51;;;;;;;2.57;2.13;;;12.90;65.30;;;;;;5078313;28;20482;-85
2023/04/12 07:55:19;;;;;;;5.43;2.13;;;12.60;64.30;;;;;;5040736;28;20440;-84
2023/04/12 07:57:46;;;;;;;6.50;2.83;;;12.10;66.50;;;;;;5091479;28;20450;-85
2023/04/12 08:00:14;;;;;;;2.17;1.87;;;12.20;66.50;;;;;;5091393;28;21043;-84
2023/04/12 08:02:42;;;;;;;2.97;2.13;;;12.20;66.80;;;;;;5092318;27;20455;-84
2023/04/12 08:05:10;;;;;;;2.07;1.80;;;12.30;67.10;;;;;;5074461;27;20444;-85
2023/04/12 08:07:36;;;;;;;2.27;1.80;;;12.20;66.20;;;;;;5092790;28;20945;-84
2023/04/12 08:10:04;;;;;;;4.93;2.30;;;12.00;67.80;;;;;;5088247;27;20462;-86
2023/04/12 08:12:31;;;;;;;6.97;3.00;;;12.00;68.60;;;;;;5091144;28;20614;-83
2023/04/12 08:14:58;;;;;;;6.30;2.40;;;12.40;68.10;;;;;;5092119;27;20451;-84
2023/04/12 08:17:27;;;;;;;3.90;2.20;;;12.70;68.30;;;;;;5075011;28;20531;-83
2023/04/12 08:19:55;;;;;;;3.63;2.10;;;13.00;66.00;;;;;;5092944;28;20438;-84
2023/04/12 08:22:22;;;;;;;3.97;2.20;;;13.00;65.20;;;;;;5074195;28;20838;-84
2023/04/12 08:24:49;;;;;;;2.90;1.63;;;12.90;65.90;;;;;;5090645;28;20444;-85
2023/04/12 08:27:17;;;;;;;4.30;1.93;;;12.90;66.10;;;;;;5086224;28;20455;-84
2023/04/12 08:29:44;;;;;;;6.50;2.50;;;13.20;66.80;;;;;;5090748;27;20979;-85
2023/04/12 08:32:11;;;;;;;3.50;2.03;;;13.20;65.80;;;;;;5070783;27;20468;-84
2023/04/12 08:34:38;;;;;;;3.00;2.00;;;13.20;66.40;;;;;;5092825;28;20530;-84
2023/04/12 08:37:07;;;;;;;2.47;1.80;;;13.40;66.50;;;;;;5073715;28;20447;-84
2023/04/12 08:39:34;;;;;;;3.50;2.10;;;13.70;65.50;;;;;;5092402;27;20530;-86
2023/04/12 08:42:02;;;;;;;5.13;3.70;;;13.80;65.40;;;;;;5074015;28;20478;-85
2023/04/12 08:44:36;;;;;;;3.80;2.30;;;13.50;65.30;;;;;;5091166;28;20444;-85
2023/04/12 08:47:04;;;;;;;3.70;2.23;;;13.50;65.80;;;;;;5091428;27;20457;-85
2023/04/12 08:49:32;;;;;;;4.77;2.53;;;13.50;67.00;;;;;;5073767;28;20554;-84
2023/04/12 08:52:04;;;;;;;1.77;1.67;;;13.20;67.70;;;;;;5072164;28;20671;-85
2023/04/12 08:54:32;;;;;;;4.20;2.47;;;13.00;66.80;;;;;;5086369;28;20475;-84
2023/04/12 08:57:01;;;;;;;4.43;2.00;;;12.80;67.60;;;;;;5054217;28;20507;-84
2023/04/12 08:59:28;;;;;;;2.97;2.20;;;12.90;68.10;;;;;;5108114;27;20439;-85
2023/04/12 09:01:56;;;;;;;2.10;1.90;;;13.00;68.60;;;;;;5090143;27;20456;-84
2023/04/12 09:04:25;;;;;;;3.17;1.97;;;13.30;68.30;;;;;;5104383;27;20431;-84
2023/04/12 09:06:52;;;;;;;2.67;1.93;;;13.30;66.90;;;;;;5090438;28;20454;-84
2023/04/12 09:09:19;;;;;;;4.13;1.70;;;13.30;66.30;;;;;;5090941;28;20976;-84
2023/04/12 09:11:47;;;;;;;2.37;2.07;;;13.20;65.70;;;;;;5074371;28;20482;-84
2023/04/12 09:14:22;;;;;;;1.60;1.50;;;13.30;67.50;;;;;;5072003;28;20456;-83
2023/04/12 09:16:49;;;;;;;2.43;2.27;;;13.60;67.00;;;;;;5091194;28;20503;-83
2023/04/12 09:19:16;;;;;;;3.40;2.37;;;13.70;66.50;;;;;;5093388;28;20654;-85
2023/04/12 09:22:01;;;;;;;2.53;1.80;;;13.80;66.70;;;;;;5092247;28;20469;-84
2023/04/12 09:24:30;;;;;;;2.50;2.23;;;13.80;66.30;;;;;;5074726;28;21047;-83
2023/04/12 09:27:03;;;;;;;3.57;2.63;;;13.80;65.40;;;;;;5086210;28;20447;-85
2023/04/12 09:29:31;;;;;;;2.30;2.03;;;13.90;66.70;;;;;;5089744;28;20554;-84
2023/04/12 09:32:01;;;;;;;2.03;1.87;;;14.10;65.70;;;;;;5090373;28;20466;-84
2023/04/12 09:34:29;;;;;;;2.33;1.90;;;13.80;64.60;;;;;;5088815;28;20485;-84
2023/04/12 09:36:56;;;;;;;3.40;2.83;;;13.70;67.00;;;;;;5055226;28;21009;-82
2023/04/12 09:39:33;;;;;;;3.70;2.70;;;13.40;67.00;;;;;;5088118;28;21178;-83
2023/04/12 09:42:09;;;;;;;3.50;2.47;;;13.30;68.50;;;;;;5088012;28;21008;-85
2023/04/12 09:44:37;;;;;;;5.93;4.00;;;13.30;67.40;;;;;;5089857;28;20447;-83
2023/04/12 09:47:05;;;;;;;3.50;2.20;;;13.20;69.50;;;;;;5087621;28;22019;-83
2023/04/12 09:49:39;;;;;;;2.40;2.03;;;13.10;69.90;;;;;;5084019;28;20943;-84
2023/04/12 09:52:07;;;;;;;3.77;2.60;;;13.10;70.80;;;;;;5091650;28;20565;-83
2023/04/12 09:54:39;;;;;;;6.83;3.90;;;13.30;70.50;;;;;;5095612;28;20827;-84
2023/04/12 09:57:08;;;;;;;5.77;2.47;;;13.70;69.00;;;;;;5091963;28;20464;-84
2023/04/12 09:59:38;;;;;;;7.20;4.73;;;13.60;68.20;;;;;;5095430;27;20455;-85
2023/04/12 10:02:14;;;;;;;2.37;2.17;;;13.60;70.40;;;;;;5092182;27;20467;-84
2023/04/12 10:04:42;;;;;;;2.23;2.00;;;13.60;69.00;;;;;;5092458;28;21106;-84
2023/04/12 10:07:10;;;;;;;3.63;2.73;;;13.60;69.10;;;;;;5093654;28;20507;-83
2023/04/12 10:09:39;;;;;;;3.70;2.47;;;13.50;70.10;;;;;;5093037;27;20584;-84
2023/04/12 10:12:08;;;;;;;10.40;2.23;;;13.70;69.80;;;;;;5072325;28;21272;-83
2023/04/12 10:14:36;;;;;;;5.20;3.30;;;13.70;69.00;;;;;;5094958;27;20540;-84
2023/04/12 10:17:05;;;;;;;3.87;2.40;;;13.80;70.00;;;;;;5067746;28;20467;-83
2023/04/12 10:19:33;;;;;;;8.33;3.83;;;14.30;70.00;;;;;;5094069;27;20443;-84
2023/04/12 10:22:00;;;;;;;5.30;4.13;;;14.40;68.30;;;;;;5091382;28;20474;-84
2023/04/12 10:24:29;;;;;;;4.67;2.10;;;14.60;68.20;;;;;;5108918;27;20448;-84
2023/04/12 10:27:01;;;;;;;2.40;2.17;;;14.30;66.10;;;;;;5090859;28;20457;-84
2023/04/12 10:29:33;;;;;;;4.77;2.47;;;14.10;68.00;;;;;;5071666;28;20467;-83
2023/04/12 10:32:21;;;;;;;2.50;2.30;;;14.40;69.90;;;;;;5088759;28;20459;-84
2023/04/12 10:34:52;;;;;;;5.60;2.60;;;14.60;69.20;;;;;;5092068;27;20455;-84
2023/04/12 10:37:20;;;;;;;2.50;2.30;;;14.90;68.40;;;;;;5080276;28;20471;-84
2023/04/12 10:39:53;;;;;;;3.00;2.10;;;14.70;68.20;;;;;;5091429;27;20453;-84
2023/04/12 10:42:22;;;;;;;3.20;2.17;;;14.50;69.30;;;;;;5091818;27;20471;-84
2023/04/12 10:44:51;;;;;;;6.40;2.33;;;14.60;68.90;;;;;;5094105;27;20474;-84
2023/04/12 10:47:52;;;;;;;2.83;2.07;;;14.70;68.20;;;;;;5096208;27;20451;-84
2023/04/12 10:50:24;;;;;;;3.13;2.20;;;14.80;68.70;;;;;;5058763;28;20843;-83
2023/04/12 10:53:26;;;;;;;3.07;2.20;;;14.90;68.20;;;;;;5105966;27;20462;-84
2023/04/12 10:55:53;;;;;;;3.53;2.10;;;14.90;68.70;;;;;;5075448;28;20449;-84
2023/04/12 10:58:58;;;;;;;2.23;2.03;;;15.00;68.90;;;;;;5084360;28;20451;-84
2023/04/12 11:01:27;;;;;;;3.13;2.10;;;15.20;66.90;;;;;;5072074;28;20471;-85
2023/04/12 11:04:18;;;;;;;3.63;1.87;;;14.90;67.80;;;;;;5093239;27;20444;-84
2023/04/12 11:07:10;;;;;;;2.47;2.27;;;14.60;67.50;;;;;;5105686;27;20599;-83
2023/04/12 11:09:57;;;;;;;2.67;2.47;;;14.40;68.00;;;;;;5073738;28;20471;-84
2023/04/12 11:12:28;;;;;;;2.10;1.90;;;14.40;70.70;;;;;;5072344;28;20493;-84
2023/04/12 11:15:00;;;;;;;3.33;2.20;;;14.50;69.50;;;;;;5075849;28;20448;-85
2023/04/12 11:17:34;;;;;;;3.70;3.27;;;14.60;69.00;;;;;;5075539;28;20545;-85
2023/04/12 11:20:03;;;;;;;6.80;3.83;;;14.90;68.90;;;;;;5081126;28;20497;-85
2023/04/12 11:22:32;;;;;;;9.40;5.73;;;15.10;68.20;;;;;;5091738;27;20478;-86
2023/04/12 11:25:01;;;;;;;10.03;3.97;;;15.10;67.10;;;;;;5089520;27;20451;-84
2023/04/12 11:27:30;;;;;;;3.87;2.10;;;14.80;67.70;;;;;;5075868;28;20487;-85
2023/04/12 11:29:58;;;;;;;7.57;3.10;;;14.70;68.80;;;;;;5081531;28;20552;-85
2023/04/12 11:32:27;;;;;;;3.90;3.47;;;15.00;69.50;;;;;;5092125;27;20475;-85
2023/04/12 11:34:57;;;;;;;4.60;2.20;;;15.40;68.00;;;;;;5090215;28;20470;-85
2023/04/12 11:37:25;;;;;;;3.00;2.07;;;15.40;67.90;;;;;;5065427;28;20465;-84
2023/04/12 11:39:55;;;;;;;3.53;2.27;;;15.30;66.50;;;;;;5094225;27;20444;-85
2023/04/12 11:42:25;;;;;;;3.10;2.80;;;15.10;67.50;;;;;;5057098;28;20458;-84
2023/04/12 11:44:52;;;;;;;7.87;6.93;;;15.30;69.00;;;;;;5092047;28;20474;-84
2023/04/12 11:47:21;;;;;;;4.33;2.40;;;15.40;68.70;;;;;;5090952;28;20439;-85
2023/04/12 11:49:50;;;;;;;3.73;2.33;;;15.50;68.40;;;;;;5089898;28;20452;-85
2023/04/12 11:52:19;;;;;;;5.30;4.40;;;15.80;67.20;;;;;;5083657;28;20463;-85
2023/04/12 11:54:48;;;;;;;3.77;2.10;;;15.70;67.00;;;;;;5073612;28;20451;-83
2023/04/12 11:57:17;;;;;;;3.40;3.10;;;15.70;65.70;;;;;;5083908;28;20479;-85
2023/04/12 11:59:46;;;;;;;6.27;2.23;;;15.50;69.00;;;;;;5108010;27;20488;-86
2023/04/12 12:02:14;;;;;;;3.30;2.50;;;15.40;67.90;;;;;;5088928;27;20486;-85
2023/04/12 12:04:43;;;;;;;8.53;2.43;;;15.50;68.70;;;;;;5094366;27;20530;-86
2023/04/12 12:07:12;;;;;;;3.90;2.20;;;15.30;66.80;;;;;;5079507;28;20440;-85
2023/04/12 12:09:42;;;;;;;3.97;2.20;;;15.00;69.70;;;;;;5094024;27;20451;-85
2023/04/12 12:12:11;;;;;;;2.93;2.37;;;15.20;69.70;;;;;;5089777;27;20470;-85
2023/04/12 12:14:38;;;;;;;3.20;2.50;;;15.50;68.70;;;;;;5093680;28;20527;-86
2023/04/12 12:17:10;;;;;;;3.50;3.20;;;15.60;67.90;;;;;;5091935;27;20446;-85
2023/04/12 12:19:38;;;;;;;6.57;2.90;;;15.70;67.90;;;;;;5093133;27;21130;-85
2023/04/12 12:22:17;;;;;;;4.60;3.70;;;15.90;66.80;;;;;;5091983;27;20983;-84
2023/04/12 12:24:51;;;;;;;5.90;2.80;;;16.20;66.50;;;;;;5091975;27;20454;-85
2023/04/12 12:27:19;;;;;;;2.10;1.87;;;16.10;65.70;;;;;;5063737;27;20451;-85
2023/04/12 12:29:52;;;;;;;3.10;2.03;;;15.50;67.00;;;;;;5092303;27;20447;-85
2023/04/12 12:32:21;;;;;;;1.73;1.63;;;15.50;68.20;;;;;;5081492;28;20554;-86
2023/04/12 12:34:56;;;;;;;2.50;2.00;;;15.50;67.50;;;;;;5089379;28;20468;-84
2023/04/12 12:37:24;;;;;;;2.17;1.97;;;15.50;66.80;;;;;;5082819;28;20951;-85
2023/04/12 12:40:10;;;;;;;5.03;4.43;;;15.60;68.00;;;;;;5065184;28;20466;-85
2023/04/12 12:42:44;;;;;;;5.57;3.00;;;15.90;67.90;;;;;;5072058;28;20454;-85
2023/04/12 12:45:12;;;;;;;2.63;2.07;;;15.90;68.10;;;;;;5087723;27;20450;-85
2023/04/12 12:47:50;;;;;;;2.40;1.70;;;16.10;67.60;;;;;;5040385;28;20462;-84
2023/04/12 12:50:18;;;;;;;2.13;1.93;;;16.20;66.60;;;;;;5075872;28;20999;-85
2023/04/12 12:52:46;;;;;;;5.13;2.43;;;16.20;66.20;;;;;;5092697;27;21022;-86
2023/04/12 12:55:15;;;;;;;1.90;1.70;;;16.20;67.30;;;;;;5054588;28;20478;-84
2023/04/12 12:57:43;;;;;;;2.73;1.80;;;15.90;67.60;;;;;;5083721;28;20453;-85
2023/04/12 13:00:12;;;;;;;2.57;1.90;;;16.20;68.70;;;;;;5062076;28;20459;-85